Knight, Indiana
Current Conditions -  °F | °C
As of 5:54 AM on Thursday 23 Oct 2014 (Local Time) from KEVV Reporting Station
Clear Clear  
Wind Chill: 39°   Ceiling: Unl
Heat Index: 39°   Visibility: 7mi
Dew Point: 37°   Wind: 3mph
Humidity: 93%   Direction: 20°NNE
Pressure: 30.25"   Gusts: NA
Location:  38.0153°N, 87.5343°W
Report Text: KEVV 231054Z 02003KT 7SM CLR 04/03 A3025 RMK AO2 SLP246 T00390028 $
Loading
Personal Weather Stations






























Interactive Weather Map
Tropical Storm Tracking
New forecast layout! Learn more

10-Day Weather Forecast

Advertisements
Track Severe Weather on mobile